North Pointe, South Carolina
Current Conditions -  °F | °C
As of 3:58 PM on Friday 19 Dec 2014 (Local Time) from KMMT Reporting Station
Broken Clouds Broken Clouds  
Wind Chill: 59°   Ceiling: 25000
Heat Index: 59°   Visibility: 10mi
Dew Point: 36°   Wind: 3mph
Humidity: 42%   Direction: 60°ENE
Pressure: 30.1"   Gusts: NA
Location:  34.0558°N, 80.8483°W
Report Text: KMMT 192058Z 06003KT 10SM BKN250 15/02 A3010 RMK AO2A SLP196 T01500020 55006
Loading
Personal Weather Stations






























Interactive Weather Map New forecast layout! Learn more

10-Day Weather Forecast

Advertisements
Track Severe Weather on mobile